sensor_id;sensor_type;location;lat;lon;timestamp;pressure;altitude;pressure_sealevel;temperature;humidity
56894;BME280;43392;50.078;13.704;2023-02-16T00:00:10;97955.84;;;0.00;89.24
56894;BME280;43392;50.078;13.704;2023-02-16T00:02:38;97960.66;;;-0.04;89.67
56894;BME280;43392;50.078;13.704;2023-02-16T00:05:16;97956.22;;;-0.03;89.81
56894;BME280;43392;50.078;13.704;2023-02-16T00:07:47;97952.75;;;-0.04;89.35
56894;BME280;43392;50.078;13.704;2023-02-16T00:10:14;97958.84;;;-0.03;89.27
56894;BME280;43392;50.078;13.704;2023-02-16T00:12:42;97960.38;;;-0.09;89.51
56894;BME280;43392;50.078;13.704;2023-02-16T00:15:26;97952.47;;;-0.09;89.52
56894;BME280;43392;50.078;13.704;2023-02-16T00:17:53;97955.31;;;-0.10;89.45
56894;BME280;43392;50.078;13.704;2023-02-16T00:20:20;97952.84;;;-0.12;89.55
56894;BME280;43392;50.078;13.704;2023-02-16T00:22:47;97954.47;;;-0.11;89.93
56894;BME280;43392;50.078;13.704;2023-02-16T00:25:13;97945.41;;;-0.08;90.19
56894;BME280;43392;50.078;13.704;2023-02-16T00:27:41;97953.09;;;-0.07;90.11
56894;BME280;43392;50.078;13.704;2023-02-16T00:30:13;97961.47;;;-0.03;90.21
56894;BME280;43392;50.078;13.704;2023-02-16T00:32:40;97955.38;;;-0.04;90.23
56894;BME280;43392;50.078;13.704;2023-02-16T00:35:13;97954.41;;;-0.03;90.21
56894;BME280;43392;50.078;13.704;2023-02-16T00:37:39;97954.41;;;-0.03;89.97
56894;BME280;43392;50.078;13.704;2023-02-16T00:40:07;97951.75;;;-0.03;90.09
56894;BME280;43392;50.078;13.704;2023-02-16T00:42:35;97951.91;;;-0.04;90.11
56894;BME280;43392;50.078;13.704;2023-02-16T00:45:04;97951.09;;;-0.05;90.00
56894;BME280;43392;50.078;13.704;2023-02-16T00:47:34;97952.75;;;-0.04;90.14
56894;BME280;43392;50.078;13.704;2023-02-16T00:50:01;97952.56;;;-0.02;90.02
56894;BME280;43392;50.078;13.704;2023-02-16T00:52:34;97951.56;;;-0.01;89.61
56894;BME280;43392;50.078;13.704;2023-02-16T00:55:03;97952.28;;;-0.07;89.33
56894;BME280;43392;50.078;13.704;2023-02-16T00:57:33;97952.84;;;-0.12;89.84
56894;BME280;43392;50.078;13.704;2023-02-16T01:00:05;97954.84;;;-0.14;89.70
56894;BME280;43392;50.078;13.704;2023-02-16T01:02:32;97939.38;;;-0.17;89.85
56894;BME280;43392;50.078;13.704;2023-02-16T01:04:59;97943.22;;;-0.19;89.81
56894;BME280;43392;50.078;13.704;2023-02-16T01:07:26;97943.41;;;-0.21;89.99
56894;BME280;43392;50.078;13.704;2023-02-16T01:10:10;97937.50;;;-0.23;89.73
56894;BME280;43392;50.078;13.704;2023-02-16T01:12:54;97926.50;;;-0.26;89.79
56894;BME280;43392;50.078;13.704;2023-02-16T01:15:24;97924.88;;;-0.27;90.23
56894;BME280;43392;50.078;13.704;2023-02-16T01:17:51;97914.34;;;-0.27;90.36
56894;BME280;43392;50.078;13.704;2023-02-16T01:20:19;97918.59;;;-0.26;90.56
56894;BME280;43392;50.078;13.704;2023-02-16T01:22:46;97906.59;;;-0.29;90.56
56894;BME280;43392;50.078;13.704;2023-02-16T01:25:13;97925.31;;;-0.24;90.18
56894;BME280;43392;50.078;13.704;2023-02-16T01:27:41;97909.88;;;-0.27;89.92
56894;BME280;43392;50.078;13.704;2023-02-16T01:30:11;97913.50;;;-0.28;89.93
56894;BME280;43392;50.078;13.704;2023-02-16T01:32:39;97917.53;;;-0.32;90.09
56894;BME280;43392;50.078;13.704;2023-02-16T01:35:06;97919.16;;;-0.31;90.48
56894;BME280;43392;50.078;13.704;2023-02-16T01:37:33;97912.88;;;-0.30;90.32
56894;BME280;43392;50.078;13.704;2023-02-16T01:40:00;97911.88;;;-0.29;90.62
56894;BME280;43392;50.078;13.704;2023-02-16T01:42:32;97900.53;;;-0.29;90.36
56894;BME280;43392;50.078;13.704;2023-02-16T01:45:07;97912.25;;;-0.32;90.17
56894;BME280;43392;50.078;13.704;2023-02-16T01:47:37;97911.06;;;-0.29;90.58
56894;BME280;43392;50.078;13.704;2023-02-16T01:50:18;97906.78;;;-0.30;90.33
56894;BME280;43392;50.078;13.704;2023-02-16T01:52:50;97911.25;;;-0.31;90.58
56894;BME280;43392;50.078;13.704;2023-02-16T01:55:22;97901.06;;;-0.34;90.47
56894;BME280;43392;50.078;13.704;2023-02-16T01:57:53;97898.81;;;-0.37;90.70
56894;BME280;43392;50.078;13.704;2023-02-16T02:00:27;97889.47;;;-0.39;89.96
56894;BME280;43392;50.078;13.704;2023-02-16T02:02:55;97893.09;;;-0.40;90.25
56894;BME280;43392;50.078;13.704;2023-02-16T02:05:45;97892.09;;;-0.39;90.17
56894;BME280;43392;50.078;13.704;2023-02-16T02:08:20;97888.00;;;-0.42;90.26
56894;BME280;43392;50.078;13.704;2023-02-16T02:10:59;97888.00;;;-0.42;90.33
56894;BME280;43392;50.078;13.704;2023-02-16T02:13:31;97886.56;;;-0.44;89.93
56894;BME280;43392;50.078;13.704;2023-02-16T02:16:03;97884.09;;;-0.46;90.21
56894;BME280;43392;50.078;13.704;2023-02-16T02:18:31;97893.00;;;-0.47;90.23
56894;BME280;43392;50.078;13.704;2023-02-16T02:21:44;97890.53;;;-0.48;89.75
56894;BME280;43392;50.078;13.704;2023-02-16T02:24:56;97889.91;;;-0.50;89.74
56894;BME280;43392;50.078;13.704;2023-02-16T02:27:31;97888.28;;;-0.51;89.96
56894;BME280;43392;50.078;13.704;2023-02-16T02:30:07;97884.84;;;-0.52;89.88
56894;BME280;43392;50.078;13.704;2023-02-16T02:33:04;97877.28;;;-0.55;89.47
56894;BME280;43392;50.078;13.704;2023-02-16T02:35:42;97878.03;;;-0.61;89.73
56894;BME280;43392;50.078;13.704;2023-02-16T02:38:14;97873.19;;;-0.57;90.00
56894;BME280;43392;50.078;13.704;2023-02-16T02:40:51;97860.59;;;-0.62;89.93
56894;BME280;43392;50.078;13.704;2023-02-16T02:43:22;97868.75;;;-0.57;89.44
56894;BME280;43392;50.078;13.704;2023-02-16T02:45:54;97866.13;;;-0.57;89.37
56894;BME280;43392;50.078;13.704;2023-02-16T02:48:22;97874.84;;;-0.56;89.35
56894;BME280;43392;50.078;13.704;2023-02-16T02:50:50;97864.13;;;-0.55;89.39
56894;BME280;43392;50.078;13.704;2023-02-16T02:53:38;97858.22;;;-0.57;89.07
56894;BME280;43392;50.078;13.704;2023-02-16T02:56:08;97852.94;;;-0.57;89.53
56894;BME280;43392;50.078;13.704;2023-02-16T02:58:56;97858.41;;;-0.58;89.32
56894;BME280;43392;50.078;13.704;2023-02-16T03:01:47;97865.66;;;-0.60;89.36
56894;BME280;43392;50.078;13.704;2023-02-16T03:04:20;97866.31;;;-0.58;89.19
56894;BME280;43392;50.078;13.704;2023-02-16T03:06:50;97858.56;;;-0.60;89.12
56894;BME280;43392;50.078;13.704;2023-02-16T03:09:18;97853.31;;;-0.60;89.20
56894;BME280;43392;50.078;13.704;2023-02-16T03:11:47;97844.97;;;-0.63;89.39
56894;BME280;43392;50.078;13.704;2023-02-16T03:14:35;97850.41;;;-0.65;89.18
56894;BME280;43392;50.078;13.704;2023-02-16T03:17:06;97850.41;;;-0.65;89.49
56894;BME280;43392;50.078;13.704;2023-02-16T03:19:51;97859.31;;;-0.66;89.28
56894;BME280;43392;50.078;13.704;2023-02-16T03:22:36;97854.22;;;-0.68;89.24
56894;BME280;43392;50.078;13.704;2023-02-16T03:25:23;97852.97;;;-0.72;89.06
56894;BME280;43392;50.078;13.704;2023-02-16T03:28:09;97855.59;;;-0.72;89.25
56894;BME280;43392;50.078;13.704;2023-02-16T03:30:57;97861.22;;;-0.75;89.50
56894;BME280;43392;50.078;13.704;2023-02-16T03:33:26;97859.59;;;-0.76;89.65
56894;BME280;43392;50.078;13.704;2023-02-16T03:35:54;97862.41;;;-0.77;89.59
56894;BME280;43392;50.078;13.704;2023-02-16T03:38:21;97858.78;;;-0.76;89.56
56894;BME280;43392;50.078;13.704;2023-02-16T03:40:49;97859.59;;;-0.76;89.49
56894;BME280;43392;50.078;13.704;2023-02-16T03:43:16;97868.28;;;-0.75;89.47
56894;BME280;43392;50.078;13.704;2023-02-16T03:45:43;97859.13;;;-0.79;89.10
56894;BME280;43392;50.078;13.704;2023-02-16T03:48:11;97862.41;;;-0.77;89.19
56894;BME280;43392;50.078;13.704;2023-02-16T03:50:38;97862.25;;;-0.76;89.26
56894;BME280;43392;50.078;13.704;2023-02-16T03:53:05;97856.97;;;-0.76;89.11
56894;BME280;43392;50.078;13.704;2023-02-16T03:55:36;97859.41;;;-0.74;89.07
56894;BME280;43392;50.078;13.704;2023-02-16T03:58:04;97856.78;;;-0.74;89.12
56894;BME280;43392;50.078;13.704;2023-02-16T04:00:32;97864.03;;;-0.76;89.10
56894;BME280;43392;50.078;13.704;2023-02-16T04:02:59;97870.28;;;-0.77;89.23
56894;BME280;43392;50.078;13.704;2023-02-16T04:05:27;97865.41;;;-0.80;89.15
56894;BME280;43392;50.078;13.704;2023-02-16T04:07:54;97866.13;;;-0.86;89.27
56894;BME280;43392;50.078;13.704;2023-02-16T04:10:21;97863.13;;;-0.83;89.59
56894;BME280;43392;50.078;13.704;2023-02-16T04:12:48;97869.88;;;-0.81;89.22
56894;BME280;43392;50.078;13.704;2023-02-16T04:15:15;97861.78;;;-0.79;89.53
56894;BME280;43392;50.078;13.704;2023-02-16T04:17:42;97867.84;;;-0.79;89.06
56894;BME280;43392;50.078;13.704;2023-02-16T04:20:12;97854.34;;;-0.76;89.54
56894;BME280;43392;50.078;13.704;2023-02-16T04:22:41;97850.53;;;-0.73;89.17
56894;BME280;43392;50.078;13.704;2023-02-16T04:25:08;97847.69;;;-0.72;88.57
56894;BME280;43392;50.078;13.704;2023-02-16T04:27:36;97861.41;;;-0.76;88.84
56894;BME280;43392;50.078;13.704;2023-02-16T04:30:04;97864.59;;;-0.81;88.74
56894;BME280;43392;50.078;13.704;2023-02-16T04:32:31;97860.50;;;-0.83;88.90
56894;BME280;43392;50.078;13.704;2023-02-16T04:34:58;97856.41;;;-0.86;88.86
56894;BME280;43392;50.078;13.704;2023-02-16T04:37:24;97848.69;;;-0.87;88.99
56894;BME280;43392;50.078;13.704;2023-02-16T04:39:52;97848.06;;;-0.89;89.05
56894;BME280;43392;50.078;13.704;2023-02-16T04:42:19;97848.69;;;-0.87;89.23
56894;BME280;43392;50.078;13.704;2023-02-16T04:44:46;97847.06;;;-0.88;89.04
56894;BME280;43392;50.078;13.704;2023-02-16T04:47:12;97832.09;;;-0.88;89.08
56894;BME280;43392;50.078;13.704;2023-02-16T04:49:39;97849.69;;;-0.88;89.22
56894;BME280;43392;50.078;13.704;2023-02-16T04:52:06;97844.44;;;-0.88;89.31
56894;BME280;43392;50.078;13.704;2023-02-16T04:54:33;97837.53;;;-0.89;88.90
56894;BME280;43392;50.078;13.704;2023-02-16T04:57:01;97842.16;;;-0.91;89.35
56894;BME280;43392;50.078;13.704;2023-02-16T04:59:27;97837.09;;;-0.93;89.23
56894;BME280;43392;50.078;13.704;2023-02-16T05:01:54;97835.28;;;-0.92;88.97
56894;BME280;43392;50.078;13.704;2023-02-16T05:04:21;97837.25;;;-0.94;89.61
56894;BME280;43392;50.078;13.704;2023-02-16T05:06:48;97830.00;;;-0.92;88.98
56894;BME280;43392;50.078;13.704;2023-02-16T05:09:15;97831.63;;;-0.91;89.25
56894;BME280;43392;50.078;13.704;2023-02-16T05:11:41;97829.34;;;-0.94;89.33
56894;BME280;43392;50.078;13.704;2023-02-16T05:14:30;97830.44;;;-0.89;89.03
56894;BME280;43392;50.078;13.704;2023-02-16T05:17:14;97820.28;;;-0.92;89.19
56894;BME280;43392;50.078;13.704;2023-02-16T05:19:42;97819.47;;;-0.92;89.40
56894;BME280;43392;50.078;13.704;2023-02-16T05:22:09;97812.56;;;-0.93;88.79
56894;BME280;43392;50.078;13.704;2023-02-16T05:24:37;97806.69;;;-0.95;89.10
56894;BME280;43392;50.078;13.704;2023-02-16T05:27:05;97808.13;;;-0.93;89.16
56894;BME280;43392;50.078;13.704;2023-02-16T05:29:33;97798.44;;;-0.92;89.20
56894;BME280;43392;50.078;13.704;2023-02-16T05:32:00;97808.41;;;-0.88;89.08
56894;BME280;43392;50.078;13.704;2023-02-16T05:34:27;97794.50;;;-0.82;89.22
56894;BME280;43392;50.078;13.704;2023-02-16T05:36:53;97804.09;;;-0.74;89.36
56894;BME280;43392;50.078;13.704;2023-02-16T05:39:20;97814.56;;;-0.66;89.00
56894;BME280;43392;50.078;13.704;2023-02-16T05:41:47;97803.28;;;-0.60;89.02
56894;BME280;43392;50.078;13.704;2023-02-16T05:44:14;97820.78;;;-0.52;88.78
56894;BME280;43392;50.078;13.704;2023-02-16T05:46:42;97822.88;;;-0.48;88.08
56894;BME280;43392;50.078;13.704;2023-02-16T05:49:10;97824.16;;;-0.44;88.14
56894;BME280;43392;50.078;13.704;2023-02-16T05:51:37;97815.69;;;-0.39;88.51
56894;BME280;43392;50.078;13.704;2023-02-16T05:54:04;97817.28;;;-0.38;87.87
56894;BME280;43392;50.078;13.704;2023-02-16T05:56:31;97818.19;;;-0.31;87.73
56894;BME280;43392;50.078;13.704;2023-02-16T05:58:59;97824.75;;;-0.27;87.60
56894;BME280;43392;50.078;13.704;2023-02-16T06:01:26;97828.44;;;-0.22;87.46
56894;BME280;43392;50.078;13.704;2023-02-16T06:03:55;97826.88;;;-0.16;87.54
56894;BME280;43392;50.078;13.704;2023-02-16T06:06:21;97843.16;;;-0.13;87.34
56894;BME280;43392;50.078;13.704;2023-02-16T06:08:48;97841.13;;;-0.11;86.74
56894;BME280;43392;50.078;13.704;2023-02-16T06:11:14;97838.13;;;-0.08;87.00
56894;BME280;43392;50.078;13.704;2023-02-16T06:13:58;97851.94;;;-0.06;86.89
56894;BME280;43392;50.078;13.704;2023-02-16T06:16:28;97843.41;;;-0.08;86.85
56894;BME280;43392;50.078;13.704;2023-02-16T06:18:57;97838.56;;;-0.04;86.66
56894;BME280;43392;50.078;13.704;2023-02-16T06:21:24;97851.13;;;-0.06;86.29
56894;BME280;43392;50.078;13.704;2023-02-16T06:23:51;97844.59;;;-0.10;86.51
56894;BME280;43392;50.078;13.704;2023-02-16T06:26:18;97850.03;;;-0.12;86.24
56894;BME280;43392;50.078;13.704;2023-02-16T06:28:45;97845.16;;;-0.15;86.65
56894;BME280;43392;50.078;13.704;2023-02-16T06:31:12;97845.16;;;-0.15;86.48
56894;BME280;43392;50.078;13.704;2023-02-16T06:33:38;97844.13;;;-0.14;86.24
56894;BME280;43392;50.078;13.704;2023-02-16T06:36:07;97842.75;;;-0.10;86.48
56894;BME280;43392;50.078;13.704;2023-02-16T06:38:34;97846.03;;;-0.08;86.24
56894;BME280;43392;50.078;13.704;2023-02-16T06:41:00;97847.66;;;-0.07;86.06
56894;BME280;43392;50.078;13.704;2023-02-16T06:43:27;97843.84;;;-0.04;86.21
56894;BME280;43392;50.078;13.704;2023-02-16T06:45:54;97850.19;;;0.02;86.17
56894;BME280;43392;50.078;13.704;2023-02-16T06:48:20;97842.69;;;0.05;86.09
56894;BME280;43392;50.078;13.704;2023-02-16T06:50:47;97851.53;;;0.12;85.77
56894;BME280;43392;50.078;13.704;2023-02-16T06:53:15;97857.84;;;0.18;85.97
56894;BME280;43392;50.078;13.704;2023-02-16T06:55:41;97860.13;;;0.21;85.32
56894;BME280;43392;50.078;13.704;2023-02-16T06:58:08;97862.38;;;0.24;85.63
56894;BME280;43392;50.078;13.704;2023-02-16T07:00:34;97861.97;;;0.27;85.23
56894;BME280;43392;50.078;13.704;2023-02-16T07:03:01;97856.53;;;0.28;84.92
56894;BME280;43392;50.078;13.704;2023-02-16T07:05:28;97865.06;;;0.30;85.10
56894;BME280;43392;50.078;13.704;2023-02-16T07:07:54;97856.97;;;0.32;84.74
56894;BME280;43392;50.078;13.704;2023-02-16T07:10:22;97857.41;;;0.35;84.81
56894;BME280;43392;50.078;13.704;2023-02-16T07:12:49;97849.50;;;0.35;84.62
56894;BME280;43392;50.078;13.704;2023-02-16T07:15:16;97858.84;;;0.38;84.57
56894;BME280;43392;50.078;13.704;2023-02-16T07:17:42;97855.41;;;0.37;84.39
56894;BME280;43392;50.078;13.704;2023-02-16T07:20:10;97850.94;;;0.38;84.17
56894;BME280;43392;50.078;13.704;2023-02-16T07:22:38;97852.75;;;0.37;84.58
56894;BME280;43392;50.078;13.704;2023-02-16T07:25:05;97847.69;;;0.36;84.11
56894;BME280;43392;50.078;13.704;2023-02-16T07:27:33;97861.03;;;0.34;84.12
56894;BME280;43392;50.078;13.704;2023-02-16T07:30:00;97857.63;;;0.34;84.42
56894;BME280;43392;50.078;13.704;2023-02-16T07:32:28;97852.13;;;0.35;84.41
56894;BME280;43392;50.078;13.704;2023-02-16T07:34:54;97848.31;;;0.38;84.15
56894;BME280;43392;50.078;13.704;2023-02-16T07:37:21;97856.84;;;0.40;84.11
56894;BME280;43392;50.078;13.704;2023-02-16T07:39:48;97855.84;;;0.41;83.87
56894;BME280;43392;50.078;13.704;2023-02-16T07:42:14;97849.56;;;0.42;83.79
56894;BME280;43392;50.078;13.704;2023-02-16T07:44:42;97857.03;;;0.38;84.10
56894;BME280;43392;50.078;13.704;2023-02-16T07:47:09;97847.47;;;0.37;83.89
56894;BME280;43392;50.078;13.704;2023-02-16T07:49:37;97844.03;;;0.37;84.28
56894;BME280;43392;50.078;13.704;2023-02-16T07:52:04;97845.28;;;0.41;83.97
56894;BME280;43392;50.078;13.704;2023-02-16T07:54:31;97853.84;;;0.43;84.19
56894;BME280;43392;50.078;13.704;2023-02-16T07:56:58;97848.19;;;0.46;84.22
56894;BME280;43392;50.078;13.704;2023-02-16T07:59:25;97844.19;;;0.56;84.23
56894;BME280;43392;50.078;13.704;2023-02-16T08:01:53;97858.09;;;0.65;84.08
56894;BME280;43392;50.078;13.704;2023-02-16T08:04:19;97851.84;;;0.73;83.58
56894;BME280;43392;50.078;13.704;2023-02-16T08:06:46;97846.03;;;0.84;83.83
56894;BME280;43392;50.078;13.704;2023-02-16T08:09:13;97847.13;;;0.96;83.29
56894;BME280;43392;50.078;13.704;2023-02-16T08:11:40;97856.34;;;1.06;83.10
56894;BME280;43392;50.078;13.704;2023-02-16T08:14:06;97851.53;;;1.16;82.93
56894;BME280;43392;50.078;13.704;2023-02-16T08:16:33;97840.59;;;1.26;82.80
56894;BME280;43392;50.078;13.704;2023-02-16T08:19:02;97842.09;;;1.35;82.53
56894;BME280;43392;50.078;13.704;2023-02-16T08:21:30;97851.69;;;1.43;82.28
56894;BME280;43392;50.078;13.704;2023-02-16T08:23:59;97846.88;;;1.59;82.13
56894;BME280;43392;50.078;13.704;2023-02-16T08:26:28;97850.38;;;1.73;82.12
56894;BME280;43392;50.078;13.704;2023-02-16T08:28:56;97841.25;;;1.82;81.69
56894;BME280;43392;50.078;13.704;2023-02-16T08:31:25;97845.38;;;1.91;81.30
56894;BME280;43392;50.078;13.704;2023-02-16T08:33:54;97849.84;;;1.97;81.35
56894;BME280;43392;50.078;13.704;2023-02-16T08:36:24;97846.81;;;2.00;81.17
56894;BME280;43392;50.078;13.704;2023-02-16T08:38:54;97853.75;;;2.01;80.79
56894;BME280;43392;50.078;13.704;2023-02-16T08:41:23;97849.88;;;2.03;80.67
56894;BME280;43392;50.078;13.704;2023-02-16T08:43:51;97851.94;;;2.08;80.58
56894;BME280;43392;50.078;13.704;2023-02-16T08:46:17;97856.59;;;2.06;80.36
56894;BME280;43392;50.078;13.704;2023-02-16T08:48:44;97851.28;;;2.06;80.35
56894;BME280;43392;50.078;13.704;2023-02-16T08:51:13;97848.66;;;2.06;80.19
56894;BME280;43392;50.078;13.704;2023-02-16T08:53:41;97850.50;;;2.06;80.30
56894;BME280;43392;50.078;13.704;2023-02-16T08:56:07;97851.28;;;2.06;80.28
56894;BME280;43392;50.078;13.704;2023-02-16T08:58:35;97841.34;;;2.08;80.40
56894;BME280;43392;50.078;13.704;2023-02-16T09:01:03;97850.72;;;2.11;80.29
56894;BME280;43392;50.078;13.704;2023-02-16T09:03:30;97849.91;;;2.17;80.48
56894;BME280;43392;50.078;13.704;2023-02-16T09:06:00;97847.91;;;2.25;80.45
56894;BME280;43392;50.078;13.704;2023-02-16T09:08:27;97847.69;;;2.33;80.28
56894;BME280;43392;50.078;13.704;2023-02-16T09:11:00;97852.41;;;2.44;79.65
56894;BME280;43392;50.078;13.704;2023-02-16T09:13:26;97850.78;;;2.56;80.01
56894;BME280;43392;50.078;13.704;2023-02-16T09:15:53;97853.03;;;2.66;79.79
56894;BME280;43392;50.078;13.704;2023-02-16T09:18:20;97843.84;;;2.75;79.79
56894;BME280;43392;50.078;13.704;2023-02-16T09:20:47;97841.81;;;2.90;79.62
56894;BME280;43392;50.078;13.704;2023-02-16T09:23:13;97843.41;;;3.11;79.85
56894;BME280;43392;50.078;13.704;2023-02-16T09:25:40;97844.75;;;3.40;79.62
56894;BME280;43392;50.078;13.704;2023-02-16T09:28:09;97852.03;;;3.64;78.94
56894;BME280;43392;50.078;13.704;2023-02-16T09:30:36;97845.22;;;3.87;78.57
56894;BME280;43392;50.078;13.704;2023-02-16T09:33:03;97837.00;;;3.95;77.31
56894;BME280;43392;50.078;13.704;2023-02-16T09:35:30;97841.72;;;3.93;76.95
56894;BME280;43392;50.078;13.704;2023-02-16T09:37:57;97846.00;;;3.88;77.08
56894;BME280;43392;50.078;13.704;2023-02-16T09:40:24;97850.53;;;3.87;77.25
56894;BME280;43392;50.078;13.704;2023-02-16T09:43:01;97856.25;;;3.84;77.45
56894;BME280;43392;50.078;13.704;2023-02-16T09:45:30;97839.72;;;3.82;77.11
56894;BME280;43392;50.078;13.704;2023-02-16T09:47:59;97857.03;;;3.91;77.27
56894;BME280;43392;50.078;13.704;2023-02-16T09:50:27;97866.19;;;3.95;77.09
56894;BME280;43392;50.078;13.704;2023-02-16T09:52:57;97855.75;;;4.00;77.63
56894;BME280;43392;50.078;13.704;2023-02-16T09:55:28;97855.53;;;4.09;77.52
56894;BME280;43392;50.078;13.704;2023-02-16T09:58:04;97856.28;;;4.16;77.20
56894;BME280;43392;50.078;13.704;2023-02-16T10:00:47;97854.25;;;4.18;77.11
56894;BME280;43392;50.078;13.704;2023-02-16T10:03:30;97857.91;;;4.17;77.04
56894;BME280;43392;50.078;13.704;2023-02-16T10:06:08;97859.53;;;4.18;77.12
56894;BME280;43392;50.078;13.704;2023-02-16T10:08:44;97865.88;;;4.17;76.96
56894;BME280;43392;50.078;13.704;2023-02-16T10:11:18;97866.13;;;4.09;77.42
56894;BME280;43392;50.078;13.704;2023-02-16T10:14:15;97858.63;;;3.99;77.63
56894;BME280;43392;50.078;13.704;2023-02-16T10:16:50;97853.69;;;4.02;78.21
56894;BME280;43392;50.078;13.704;2023-02-16T10:19:22;97852.88;;;4.09;78.25
56894;BME280;43392;50.078;13.704;2023-02-16T10:21:54;97855.69;;;4.14;78.09
56894;BME280;43392;50.078;13.704;2023-02-16T10:24:23;97841.19;;;4.16;78.32
56894;BME280;43392;50.078;13.704;2023-02-16T10:26:56;97843.78;;;4.23;78.58
56894;BME280;43392;50.078;13.704;2023-02-16T10:29:26;97841.06;;;4.36;78.63
56894;BME280;43392;50.078;13.704;2023-02-16T10:32:04;97836.69;;;4.48;78.73
56894;BME280;43392;50.078;13.704;2023-02-16T10:34:42;97835.16;;;4.65;78.22
56894;BME280;43392;50.078;13.704;2023-02-16T10:37:27;97833.34;;;4.84;78.16
56894;BME280;43392;50.078;13.704;2023-02-16T10:40:13;97830.50;;;5.03;77.78
56894;BME280;43392;50.078;13.704;2023-02-16T10:42:48;97830.59;;;5.15;77.13
56894;BME280;43392;50.078;13.704;2023-02-16T10:45:22;97834.38;;;5.25;76.85
56894;BME280;43392;50.078;13.704;2023-02-16T10:47:51;97828.19;;;5.31;76.95
56894;BME280;43392;50.078;13.704;2023-02-16T10:50:22;97821.38;;;5.35;76.88
56894;BME280;43392;50.078;13.704;2023-02-16T10:52:51;97816.66;;;5.38;76.97
56894;BME280;43392;50.078;13.704;2023-02-16T10:55:20;97821.09;;;5.44;77.06
56894;BME280;43392;50.078;13.704;2023-02-16T10:57:52;97814.28;;;5.48;76.52
56894;BME280;43392;50.078;13.704;2023-02-16T11:00:23;97813.56;;;5.59;76.53
56894;BME280;43392;50.078;13.704;2023-02-16T11:02:54;97811.25;;;5.62;76.58
56894;BME280;43392;50.078;13.704;2023-02-16T11:05:34;97817.16;;;6.00;77.31
56894;BME280;43392;50.078;13.704;2023-02-16T11:08:02;97825.25;;;6.06;76.27
56894;BME280;43392;50.078;13.704;2023-02-16T11:10:42;97826.06;;;6.06;76.24
56894;BME280;43392;50.078;13.704;2023-02-16T11:13:16;97824.69;;;6.03;76.04
56894;BME280;43392;50.078;13.704;2023-02-16T11:15:49;97817.59;;;5.97;75.92
56894;BME280;43392;50.078;13.704;2023-02-16T11:18:28;97813.75;;;5.93;76.42
56894;BME280;43392;50.078;13.704;2023-02-16T11:20:56;97814.91;;;5.86;76.28
56894;BME280;43392;50.078;13.704;2023-02-16T11:23:25;97823.72;;;5.80;76.20
56894;BME280;43392;50.078;13.704;2023-02-16T11:25:57;97809.69;;;5.73;76.65
56894;BME280;43392;50.078;13.704;2023-02-16T11:28:29;97818.34;;;5.68;76.61
56894;BME280;43392;50.078;13.704;2023-02-16T11:31:01;97820.88;;;5.63;76.72
56894;BME280;43392;50.078;13.704;2023-02-16T11:33:31;97804.66;;;5.65;76.72
56894;BME280;43392;50.078;13.704;2023-02-16T11:35:59;97799.16;;;5.66;77.24
56894;BME280;43392;50.078;13.704;2023-02-16T11:38:30;97794.91;;;5.77;77.10
56894;BME280;43392;50.078;13.704;2023-02-16T11:40:58;97796.88;;;5.81;77.27
56894;BME280;43392;50.078;13.704;2023-02-16T11:43:28;97801.13;;;5.89;77.25
56894;BME280;43392;50.078;13.704;2023-02-16T11:45:58;97797.13;;;5.98;77.53
56894;BME280;43392;50.078;13.704;2023-02-16T11:48:27;97800.66;;;6.10;77.02
56894;BME280;43392;50.078;13.704;2023-02-16T11:50:57;97793.94;;;6.19;76.93
56894;BME280;43392;50.078;13.704;2023-02-16T11:53:26;97792.19;;;6.13;76.76
56894;BME280;43392;50.078;13.704;2023-02-16T11:56:10;97792.78;;;6.15;77.05
56894;BME280;43392;50.078;13.704;2023-02-16T11:58:37;97789.34;;;6.26;77.21
56894;BME280;43392;50.078;13.704;2023-02-16T12:01:15;97783.09;;;6.32;76.67
56894;BME280;43392;50.078;13.704;2023-02-16T12:03:55;97787.06;;;6.41;76.82
56894;BME280;43392;50.078;13.704;2023-02-16T12:06:47;97783.25;;;6.49;76.56
56894;BME280;43392;50.078;13.704;2023-02-16T12:09:26;97779.44;;;6.56;76.59
56894;BME280;43392;50.078;13.704;2023-02-16T12:12:07;97778.53;;;6.62;76.38
56894;BME280;43392;50.078;13.704;2023-02-16T12:14:42;97770.19;;;6.71;76.41
56894;BME280;43392;50.078;13.704;2023-02-16T12:17:23;97772.97;;;6.76;76.36
56894;BME280;43392;50.078;13.704;2023-02-16T12:19:59;97769.50;;;6.87;75.88
56894;BME280;43392;50.078;13.704;2023-02-16T12:22:33;97760.34;;;6.94;75.79
56894;BME280;43392;50.078;13.704;2023-02-16T12:25:18;97754.88;;;7.01;75.64
56894;BME280;43392;50.078;13.704;2023-02-16T12:27:49;97749.41;;;7.07;75.48
56894;BME280;43392;50.078;13.704;2023-02-16T12:30:27;97751.63;;;7.10;75.22
56894;BME280;43392;50.078;13.704;2023-02-16T12:33:05;97748.13;;;7.33;76.64
56894;BME280;43392;50.078;13.704;2023-02-16T12:35:47;97747.28;;;7.44;74.58
56894;BME280;43392;50.078;13.704;2023-02-16T12:38:25;97744.75;;;7.38;73.18
56894;BME280;43392;50.078;13.704;2023-02-16T12:41:03;97750.00;;;7.21;73.49
56894;BME280;43392;50.078;13.704;2023-02-16T12:43:36;97739.44;;;7.26;74.43
56894;BME280;43392;50.078;13.704;2023-02-16T12:46:05;97739.66;;;7.36;74.65
56894;BME280;43392;50.078;13.704;2023-02-16T12:48:39;97727.22;;;7.42;74.22
56894;BME280;43392;50.078;13.704;2023-02-16T12:51:10;97732.44;;;7.36;74.12
56894;BME280;43392;50.078;13.704;2023-02-16T12:53:45;97729.41;;;7.45;73.98
56894;BME280;43392;50.078;13.704;2023-02-16T12:56:16;97731.16;;;7.51;74.06
56894;BME280;43392;50.078;13.704;2023-02-16T12:58:46;97727.28;;;7.58;74.16
56894;BME280;43392;50.078;13.704;2023-02-16T13:01:19;97733.53;;;7.64;74.30
56894;BME280;43392;50.078;13.704;2023-02-16T13:03:51;97725.63;;;7.69;73.07
56894;BME280;43392;50.078;13.704;2023-02-16T13:06:23;97732.44;;;7.76;73.43
56894;BME280;43392;50.078;13.704;2023-02-16T13:08:55;97725.66;;;7.85;73.21
56894;BME280;43392;50.078;13.704;2023-02-16T13:11:30;97715.88;;;7.91;73.08
56894;BME280;43392;50.078;13.704;2023-02-16T13:14:02;97706.59;;;7.93;72.43